Airfield :
LOGIN :

Register | Disclaimer

   EN    FR    IT 

 










Legend :    VFR   Marginal VFR   IFR   Intensive IFR   Very Intensive IFR
Visi :
Ceiling :
>= 8 km
>= 3000ft
5 to 8 km
1000 to 3000 ft
1500m to 5 km
500 to 1000 ft
800 to 1500m
200 to 500 ft
< 800m
< 200 ft
Symbols :   Thunderstorms  Fog  Heavy snow  Heavy precipitations  Wind > 20 kt
SIGMETs :     Misc.  Thunderstorms  Icing  Turbulence  Mountain Waves  Volcanic Ashes






- Airport Elevation : 22 ft
- IATA code : LDY


EGAE - Londonderry Eglington

CURRENT METAR :
  • 271420Z 29018G29KT 9999 -SHRA SCT018 SCT032 05/03 Q1006

EXPIRED METARs :
  • 271350Z 26017KT 9999 VCSH SCT032 06/03 Q1005
  • 271320Z 28013KT 9999 VCSH SCT012CB SCT022 07/03 Q1005
  • 271250Z 32011KT 9999 VCSH FEW012 SCT017CB 04/02 Q1005
  • 271220Z 27014KT 9999 VCSH FEW009 FEW017CB SCT045 06/03 Q1004
  • 271150Z 28012KT 9999 VCSH FEW009 FEW012CB 05/02 Q1004

TAF TAF EGAE
Valid from the 27 at 12:00 until the 27 at 21:00 UTC


271058Z 2712/2721 26012KT 9999 FEW010 SCT030
PROB40
TEMPO 2712/2715 28016G26KT 4000 SHRASN SHRAGS SCT008 BKN012CB
BECMG 2717/2720 20014KT



MET'MAP, your aeronautical weather chart ! - Copyright ORBIFLY December 2007 - Disclaimer

ORBIFLY MET'MAP TEAM :

Programming & Development : Alexandra Zaïnal
Concept & original design : Baudouin d'Aumeries
Assistance for programming : Marc-Olivier Méhu
Technical & hardware support : Manuel Goepfert

Contact : metmap@orbifly.com




SOURCES & CREDITS :

   NOAA